Ms Signal — SFWL — position and weather

sailwx.info

Track history (hours):
 
Tides and Currents Weather Stations Pressure Air Temp Water Temp Dewpoint Dewpoint Depression Visibility Wind Speed Wind Dir Waves Ship Positions

Ms Signal

Last reported at 2017-Apr-25 08:40 UTC. Time now 2017-Apr-27 22:39 UTC.
Position N 59°19' E 018°07'.

Length 16 m.

Type: Diving. MMSI: 265648340.

Date/timePositionNaut miles runAvg speedWind from/ knotsBaromVisibWave heightAir tempDewpointWater temp
2017-Apr-25 08:40N 59°19' E 018°07'1 6.3
2017-Apr-25 08:30N 59°18' E 018°05'2 3.3
2017-Apr-25 08:00N 59°19' E 018°02'3 5.3
2017-Apr-25 07:30N 59°21' E 017°59'0 0.1
2017-Apr-25 06:59N 59°21' E 017°59'0 0.4
2017-Apr-25 06:30N 59°21' E 017°59'3 6.0
2017-Apr-25 05:58N 59°18' E 018°03'2 5.2
2017-Apr-25 05:30N 59°19' E 018°08'  
2017-Apr-21 07:23N 59°21' E 018°08'1 3.5
2017-Apr-21 07:00N 59°20' E 018°10'0 0.0
2017-Apr-21 06:30N 59°20' E 018°10'0 0.0
2017-Apr-21 05:57N 59°20' E 018°10'0 0.4
2017-Apr-21 05:30N 59°20' E 018°10'1 0.1
2017-Apr-20 13:50N 59°21' E 018°08'0 0.9
2017-Apr-20 13:30N 59°21' E 018°07'0 0.3
2017-Apr-20 13:00N 59°21' E 018°07'0 0.1
2017-Apr-20 08:49N 59°21' E 018°08'1 3.2
2017-Apr-20 08:28N 59°22' E 018°07'0 0.0
2017-Apr-20 08:00N 59°22' E 018°07'1 1.1
2017-Apr-20 07:30N 59°21' E 018°07'  
2017-Apr-15 08:46N 59°23' E 018°05'  
Track history (hours):
 
Tides and Currents Weather Stations Pressure Air Temp Water Temp Dewpoint Dewpoint Depression Visibility Wind Speed Wind Dir Waves Ship Positions

Ms Signal

Last reported at 2017-Apr-25 08:40 UTC. Time now 2017-Apr-27 22:39 UTC.
Position N 59°19' E 018°07'.

Length 16 m.

Type: Diving. MMSI: 265648340.

Date/timePositionNaut miles runAvg speedWind from/ knotsBaromVisibWave heightAir tempDewpointWater temp
2017-Apr-25 08:40N 59°19' E 018°07'1 6.3
2017-Apr-25 08:30N 59°18' E 018°05'2 3.3
2017-Apr-25 08:00N 59°19' E 018°02'3 5.3
2017-Apr-25 07:30N 59°21' E 017°59'0 0.1
2017-Apr-25 06:59N 59°21' E 017°59'0 0.4
2017-Apr-25 06:30N 59°21' E 017°59'3 6.0
2017-Apr-25 05:58N 59°18' E 018°03'2 5.2
2017-Apr-25 05:30N 59°19' E 018°08'  
2017-Apr-21 07:23N 59°21' E 018°08'1 3.5
2017-Apr-21 07:00N 59°20' E 018°10'0 0.0
2017-Apr-21 06:30N 59°20' E 018°10'0 0.0
2017-Apr-21 05:57N 59°20' E 018°10'0 0.4
2017-Apr-21 05:30N 59°20' E 018°10'1 0.1
2017-Apr-20 13:50N 59°21' E 018°08'0 0.9
2017-Apr-20 13:30N 59°21' E 018°07'0 0.3
2017-Apr-20 13:00N 59°21' E 018°07'0 0.1
2017-Apr-20 08:49N 59°21' E 018°08'1 3.2
2017-Apr-20 08:28N 59°22' E 018°07'0 0.0
2017-Apr-20 08:00N 59°22' E 018°07'1 1.1
2017-Apr-20 07:30N 59°21' E 018°07'  
2017-Apr-15 08:46N 59°23' E 018°05'  

Dump ship's entire track history